createdAt,value
2019-05-18T00:00:44.703Z,8.70
2019-05-18T00:03:15.198Z,8.70
2019-05-18T00:05:45.891Z,8.70
2019-05-18T00:08:16.674Z,8.70
2019-05-18T00:10:48.376Z,8.70
2019-05-18T00:13:18.933Z,8.60
2019-05-18T00:15:49.382Z,8.60
2019-05-18T00:18:19.855Z,8.60
2019-05-18T00:20:50.352Z,8.60
2019-05-18T00:23:20.862Z,8.60
2019-05-18T00:25:51.490Z,8.60
2019-05-18T00:28:22.399Z,8.60
2019-05-18T00:30:52.887Z,8.50
2019-05-18T00:33:23.436Z,8.50
2019-05-18T00:35:53.943Z,8.50
2019-05-18T00:38:24.603Z,8.50
2019-05-18T00:40:55.076Z,8.40
2019-05-18T00:43:25.838Z,8.40
2019-05-18T00:45:56.375Z,8.50
2019-05-18T00:48:26.874Z,8.60
2019-05-18T00:50:57.401Z,8.60
2019-05-18T00:53:27.952Z,8.60
2019-05-18T00:55:58.450Z,8.70
2019-05-18T00:58:29.133Z,8.70
2019-05-18T01:00:59.596Z,8.60
2019-05-18T01:03:30.151Z,8.60
2019-05-18T01:06:00.616Z,8.60
2019-05-18T01:08:31.208Z,8.50
2019-05-18T01:11:01.692Z,8.50
2019-05-18T01:13:32.250Z,8.40
2019-05-18T01:16:02.720Z,8.40
2019-05-18T01:18:33.191Z,8.40
2019-05-18T01:21:03.710Z,8.40
2019-05-18T01:23:34.236Z,8.40
2019-05-18T01:26:04.775Z,8.40
2019-05-18T01:28:35.212Z,8.40
2019-05-18T01:31:06.049Z,8.40
2019-05-18T01:33:36.566Z,8.30
2019-05-18T01:36:07.019Z,8.30
2019-05-18T01:38:37.505Z,8.30
2019-05-18T01:41:08.089Z,8.20
2019-05-18T01:43:38.565Z,8.20
2019-05-18T01:46:10.458Z,8.20
2019-05-18T01:48:41.156Z,8.20
2019-05-18T01:51:12.800Z,8.20
2019-05-18T01:53:43.350Z,8.10
2019-05-18T01:56:13.880Z,8.00
2019-05-18T01:58:44.372Z,8.00
2019-05-18T02:01:16.145Z,8.00
2019-05-18T02:03:46.635Z,8.00
2019-05-18T02:06:17.132Z,8.00
2019-05-18T02:08:47.691Z,8.10
2019-05-18T02:11:18.245Z,8.10
2019-05-18T02:13:48.716Z,8.20
2019-05-18T02:16:19.325Z,8.20
2019-05-18T02:18:53.095Z,8.30
2019-05-18T02:21:23.555Z,8.30
2019-05-18T02:23:53.999Z,8.40
2019-05-18T02:26:24.454Z,8.40
2019-05-18T02:28:54.911Z,8.40
2019-05-18T02:31:25.416Z,8.50
2019-05-18T02:33:55.883Z,8.50
2019-05-18T02:36:26.380Z,8.60
2019-05-18T02:38:56.809Z,8.60
2019-05-18T02:41:27.303Z,8.60
2019-05-18T02:43:57.731Z,8.60
2019-05-18T02:46:28.208Z,8.70
2019-05-18T02:48:59.013Z,8.70
2019-05-18T02:51:29.614Z,8.70
2019-05-18T02:54:00.198Z,8.70
2019-05-18T02:56:30.807Z,8.60
2019-05-18T02:59:01.465Z,8.50
2019-05-18T03:01:32.047Z,8.40
2019-05-18T03:04:02.553Z,8.40
2019-05-18T03:06:33.020Z,8.30
2019-05-18T03:09:05.391Z,8.30
2019-05-18T03:11:36.608Z,8.30
2019-05-18T03:14:07.152Z,8.30
2019-05-18T03:16:37.655Z,8.30
2019-05-18T03:19:09.260Z,8.30
2019-05-18T03:21:39.926Z,8.30
2019-05-18T03:24:10.507Z,8.30
2019-05-18T03:26:41.480Z,8.30
2019-05-18T03:29:11.932Z,8.30
2019-05-18T03:31:42.583Z,8.30
2019-05-18T03:34:13.033Z,8.30
2019-05-18T03:36:43.513Z,8.40
2019-05-18T03:39:14.246Z,8.40
2019-05-18T03:41:44.732Z,8.30
2019-05-18T03:44:15.315Z,8.30
2019-05-18T03:46:45.778Z,8.20
2019-05-18T03:49:26.128Z,8.10
2019-05-18T03:51:48.589Z,8.00
2019-05-18T03:54:19.019Z,7.90
2019-05-18T03:56:49.498Z,7.90
2019-05-18T03:59:19.984Z,7.80
2019-05-18T04:01:50.638Z,7.80
2019-05-18T04:04:21.070Z,7.80
2019-05-18T04:06:51.532Z,7.80
2019-05-18T04:09:22.086Z,7.80
2019-05-18T04:11:52.711Z,7.80
2019-05-18T04:14:24.556Z,7.90
2019-05-18T04:16:57.776Z,7.90
2019-05-18T04:19:44.726Z,7.90
2019-05-18T04:22:00.946Z,7.80
2019-05-18T04:24:31.544Z,7.80
2019-05-18T04:27:02.196Z,7.80
2019-05-18T04:29:32.691Z,7.80
2019-05-18T04:32:03.503Z,7.80
2019-05-18T04:34:33.975Z,7.80
2019-05-18T04:37:04.517Z,7.80
2019-05-18T04:39:34.989Z,7.80
2019-05-18T04:42:05.471Z,7.80
2019-05-18T04:44:35.949Z,7.90
2019-05-18T04:47:06.858Z,7.90
2019-05-18T04:49:37.748Z,8.00
2019-05-18T04:52:08.415Z,8.10
2019-05-18T04:54:39.477Z,8.10
2019-05-18T04:57:10.188Z,8.20
2019-05-18T04:59:40.692Z,8.20
2019-05-18T05:02:11.256Z,8.30
2019-05-18T05:04:41.703Z,8.50
2019-05-18T05:07:12.295Z,8.60
2019-05-18T05:09:42.798Z,8.80
2019-05-18T05:12:13.282Z,8.90
2019-05-18T05:14:43.796Z,9.00
2019-05-18T05:17:14.318Z,9.10
2019-05-18T05:19:47.064Z,9.20
2019-05-18T05:22:17.716Z,9.20
2019-05-18T05:24:48.256Z,9.30
2019-05-18T05:27:18.800Z,9.30
2019-05-18T05:29:49.680Z,9.40
2019-05-18T05:32:21.800Z,9.50
2019-05-18T05:34:52.537Z,9.50
2019-05-18T05:37:24.115Z,9.50
2019-05-18T05:39:54.908Z,9.50
2019-05-18T05:42:25.396Z,9.50
2019-05-18T05:44:55.879Z,9.60
2019-05-18T05:47:26.806Z,9.60
2019-05-18T05:49:57.424Z,9.50
2019-05-18T05:52:27.882Z,9.60
2019-05-18T05:54:58.478Z,9.50
2019-05-18T05:57:28.974Z,9.50
2019-05-18T05:59:59.512Z,9.60
2019-05-18T06:02:31.191Z,9.60
2019-05-18T06:05:03.332Z,9.60
2019-05-18T06:07:33.922Z,9.60
2019-05-18T06:10:04.770Z,9.70
2019-05-18T06:12:35.283Z,9.70
2019-05-18T06:15:06.216Z,9.70
2019-05-18T06:17:36.707Z,9.80
2019-05-18T06:20:10.535Z,9.90
2019-05-18T06:22:41.376Z,9.90
2019-05-18T06:25:12.325Z,10.10
2019-05-18T06:27:44.692Z,10.20
2019-05-18T06:30:15.599Z,10.40
2019-05-18T06:32:46.159Z,10.60
2019-05-18T06:35:17.978Z,11.00
2019-05-18T06:37:48.564Z,11.30
2019-05-18T06:40:19.112Z,11.60
2019-05-18T06:42:49.712Z,11.90
2019-05-18T06:45:20.518Z,12.10
2019-05-18T06:47:51.037Z,12.30
2019-05-18T06:50:29.829Z,12.50
2019-05-18T06:53:01.742Z,12.70
2019-05-18T06:55:33.784Z,12.90
2019-05-18T06:58:04.710Z,13.00
2019-05-18T07:00:47.526Z,13.30
2019-05-18T07:03:18.030Z,13.40
2019-05-18T07:05:48.600Z,13.50
2019-05-18T07:08:19.265Z,13.60
2019-05-18T07:10:49.896Z,13.80
2019-05-18T07:13:20.491Z,13.80
2019-05-18T07:15:51.380Z,14.00
2019-05-18T07:18:21.916Z,14.00
2019-05-18T07:20:52.947Z,14.10
2019-05-18T07:23:23.415Z,14.20
2019-05-18T07:25:53.921Z,14.30
2019-05-18T07:28:24.400Z,14.40
2019-05-18T07:30:54.878Z,14.40
2019-05-18T07:33:25.380Z,14.50
2019-05-18T07:35:55.845Z,14.60
2019-05-18T07:38:26.389Z,14.70
2019-05-18T07:40:56.897Z,14.90
2019-05-18T07:43:27.423Z,14.90
2019-05-18T07:45:57.931Z,15.00
2019-05-18T07:48:28.422Z,15.10
2019-05-18T07:50:59.001Z,15.10
2019-05-18T07:53:29.611Z,15.20
2019-05-18T07:56:00.089Z,15.30
2019-05-18T07:58:31.799Z,15.30
2019-05-18T08:01:03.145Z,15.40
2019-05-18T08:03:33.710Z,15.50
2019-05-18T08:06:04.217Z,15.60
2019-05-18T08:08:34.724Z,15.70
2019-05-18T08:11:05.226Z,15.70
2019-05-18T08:13:35.753Z,15.80
2019-05-18T08:16:06.337Z,15.90
2019-05-18T08:18:36.834Z,16.00
2019-05-18T08:21:07.361Z,16.10
2019-05-18T08:23:37.945Z,16.20
2019-05-18T08:26:08.791Z,16.30
2019-05-18T08:28:41.055Z,16.40
2019-05-18T08:31:12.997Z,16.50
2019-05-18T08:33:43.569Z,16.60
2019-05-18T08:36:14.076Z,16.70
2019-05-18T08:38:46.632Z,16.80
2019-05-18T08:41:17.331Z,16.80
2019-05-18T08:43:47.780Z,16.90
2019-05-18T08:46:20.495Z,17.10
2019-05-18T08:48:51.087Z,17.20
2019-05-18T08:51:21.699Z,17.30
2019-05-18T08:53:52.246Z,17.30
2019-05-18T08:56:22.864Z,17.40
2019-05-18T08:58:53.632Z,17.50
2019-05-18T09:01:24.287Z,17.70
2019-05-18T09:03:54.838Z,17.80
2019-05-18T09:06:25.375Z,17.90
2019-05-18T09:08:56.003Z,18.10
2019-05-18T09:11:42.107Z,18.20
2019-05-18T09:14:13.238Z,18.30
2019-05-18T09:16:43.742Z,18.50
2019-05-18T09:19:14.630Z,18.50
2019-05-18T09:21:45.165Z,18.60
2019-05-18T09:24:15.677Z,18.60
2019-05-18T09:26:46.338Z,18.70
2019-05-18T09:29:16.955Z,18.80
2019-05-18T09:31:48.222Z,18.90
2019-05-18T09:34:19.081Z,19.00
2019-05-18T09:36:49.665Z,19.10
2019-05-18T09:39:28.856Z,19.20
2019-05-18T09:42:01.884Z,19.40
2019-05-18T09:44:34.656Z,19.50
2019-05-18T09:47:05.265Z,19.60
2019-05-18T09:49:35.746Z,19.80
2019-05-18T09:52:06.401Z,19.90
2019-05-18T09:54:36.981Z,20.00
2019-05-18T09:57:07.442Z,20.10
2019-05-18T09:59:37.972Z,20.40
2019-05-18T10:02:08.605Z,20.60
2019-05-18T10:04:39.316Z,20.80
2019-05-18T10:07:12.603Z,21.00
2019-05-18T10:09:43.131Z,21.20
2019-05-18T10:12:13.614Z,21.40
2019-05-18T10:14:44.200Z,21.60
2019-05-18T10:17:14.753Z,21.80
2019-05-18T10:19:45.322Z,22.00
2019-05-18T10:22:15.810Z,22.20
2019-05-18T10:24:46.332Z,22.40
2019-05-18T10:27:17.284Z,22.60
2019-05-18T10:29:49.555Z,22.80
2019-05-18T10:32:20.460Z,23.10
2019-05-18T10:34:51.140Z,23.30
2019-05-18T10:37:22.774Z,23.60
2019-05-18T10:39:57.196Z,23.90
2019-05-18T10:42:27.696Z,24.20
2019-05-18T10:44:58.876Z,24.40
2019-05-18T10:47:29.322Z,24.60
2019-05-18T10:50:00.264Z,24.90
2019-05-18T10:52:31.134Z,25.20
2019-05-18T10:55:01.810Z,25.60
2019-05-18T10:57:33.772Z,26.00
2019-05-18T11:00:05.125Z,26.40
2019-05-18T11:02:35.655Z,26.70
2019-05-18T11:05:07.599Z,26.80
2019-05-18T11:07:38.320Z,26.80
2019-05-18T11:10:10.454Z,26.70
2019-05-18T11:12:41.128Z,26.50
2019-05-18T11:15:14.676Z,26.40
2019-05-18T11:17:45.149Z,26.20
2019-05-18T11:20:16.555Z,25.90
2019-05-18T11:22:47.158Z,25.70
2019-05-18T11:25:18.263Z,25.50
2019-05-18T11:27:48.931Z,25.30
2019-05-18T11:30:21.054Z,25.10
2019-05-18T11:32:51.633Z,25.10
2019-05-18T11:35:27.487Z,25.00
2019-05-18T11:37:58.012Z,25.00
2019-05-18T11:40:29.007Z,25.00
2019-05-18T11:43:00.738Z,25.00
2019-05-18T11:45:34.091Z,25.00
2019-05-18T11:48:04.710Z,25.00
2019-05-18T11:50:35.169Z,25.10
2019-05-18T11:53:05.729Z,25.20
2019-05-18T11:55:36.181Z,25.30
2019-05-18T11:58:06.714Z,25.50
2019-05-18T12:00:37.250Z,25.70
2019-05-18T12:03:09.185Z,25.90
2019-05-18T12:05:39.616Z,26.00
2019-05-18T12:08:10.343Z,26.40
2019-05-18T12:10:41.070Z,26.80
2019-05-18T12:13:11.543Z,27.20
2019-05-18T12:15:42.182Z,27.60
2019-05-18T12:18:13.178Z,28.00
2019-05-18T12:20:43.948Z,28.40
2019-05-18T12:23:14.421Z,28.80
2019-05-18T12:25:45.144Z,29.10
2019-05-18T12:28:15.683Z,29.50
2019-05-18T12:30:46.735Z,29.80
2019-05-18T12:33:17.219Z,30.10
2019-05-18T12:35:48.156Z,30.30
2019-05-18T12:38:20.742Z,30.50
2019-05-18T12:40:51.371Z,30.70
2019-05-18T12:43:21.976Z,30.80
2019-05-18T12:45:52.867Z,30.80
2019-05-18T12:48:24.571Z,30.70
2019-05-18T12:50:55.177Z,30.60
2019-05-18T12:53:26.118Z,30.50
2019-05-18T12:55:56.655Z,30.40
2019-05-18T12:58:27.163Z,30.40
2019-05-18T13:00:57.687Z,30.30
2019-05-18T13:03:28.404Z,30.20
2019-05-18T13:05:58.979Z,30.00
2019-05-18T13:08:29.831Z,29.90
2019-05-18T13:11:00.326Z,29.80
2019-05-18T13:13:30.849Z,29.70
2019-05-18T13:16:01.416Z,29.70
2019-05-18T13:18:32.033Z,29.80
2019-05-18T13:21:03.211Z,29.90
2019-05-18T13:23:34.137Z,30.10
2019-05-18T13:26:06.697Z,30.10
2019-05-18T13:28:37.201Z,30.20
2019-05-18T13:31:07.714Z,30.20
2019-05-18T13:33:39.835Z,30.30
2019-05-18T13:36:10.423Z,30.40
2019-05-18T13:38:40.989Z,30.40
2019-05-18T13:41:11.807Z,30.30
2019-05-18T13:43:42.483Z,30.20
2019-05-18T13:46:16.008Z,30.20
2019-05-18T13:48:46.668Z,30.20
2019-05-18T13:51:17.166Z,30.10
2019-05-18T13:53:47.817Z,29.90
2019-05-18T13:56:18.469Z,29.60
2019-05-18T13:58:49.377Z,29.30
2019-05-18T14:01:20.147Z,29.00
2019-05-18T14:03:50.735Z,28.80
2019-05-18T14:06:21.320Z,28.60
2019-05-18T14:08:53.863Z,28.60
2019-05-18T14:11:24.507Z,28.70
2019-05-18T14:13:55.062Z,28.90
2019-05-18T14:16:25.543Z,29.10
2019-05-18T14:18:56.083Z,29.50
2019-05-18T14:21:26.629Z,29.70
2019-05-18T14:23:57.564Z,30.00
2019-05-18T14:26:28.378Z,30.30
2019-05-18T14:28:58.944Z,30.50
2019-05-18T14:31:29.475Z,30.70
2019-05-18T14:34:00.107Z,30.80
2019-05-18T14:36:32.921Z,30.90
2019-05-18T14:39:04.577Z,30.80
2019-05-18T14:41:35.080Z,30.90
2019-05-18T14:44:05.774Z,31.10
2019-05-18T14:46:36.308Z,31.50
2019-05-18T14:49:06.827Z,31.90
2019-05-18T14:51:38.251Z,32.30
2019-05-18T14:54:08.782Z,32.90
2019-05-18T14:56:39.306Z,33.50
2019-05-18T14:59:10.006Z,34.10
2019-05-18T15:01:40.616Z,34.70
2019-05-18T15:04:11.137Z,35.30
2019-05-18T15:06:41.736Z,35.90
2019-05-18T15:09:12.346Z,36.50
2019-05-18T15:11:42.957Z,37.00
2019-05-18T15:14:15.128Z,37.70
2019-05-18T15:16:45.714Z,38.40
2019-05-18T15:19:16.352Z,38.70
2019-05-18T15:21:47.252Z,38.80
2019-05-18T15:24:19.440Z,39.30
2019-05-18T15:26:51.435Z,39.40
2019-05-18T15:29:22.001Z,39.60
2019-05-18T15:31:54.765Z,40.00
2019-05-18T15:34:26.190Z,40.40
2019-05-18T15:36:56.670Z,40.80
2019-05-18T15:39:35.506Z,41.20
2019-05-18T15:42:06.576Z,41.50
2019-05-18T15:44:37.905Z,41.80
2019-05-18T15:47:08.688Z,42.00
2019-05-18T15:49:39.819Z,42.10
2019-05-18T15:52:10.547Z,42.20
2019-05-18T15:54:41.371Z,42.20
2019-05-18T15:57:12.643Z,42.10
2019-05-18T15:59:43.644Z,42.10
2019-05-18T16:02:15.298Z,41.90
2019-05-18T16:04:45.867Z,41.60
2019-05-18T16:07:16.566Z,41.30
2019-05-18T16:09:56.511Z,41.00
2019-05-18T16:12:29.184Z,40.60
2019-05-18T16:14:59.678Z,40.40
2019-05-18T16:17:39.260Z,40.10
2019-05-18T16:20:06.420Z,39.80
2019-05-18T16:22:36.986Z,39.50
2019-05-18T16:25:08.723Z,39.40
2019-05-18T16:27:49.815Z,39.50
2019-05-18T16:30:23.778Z,39.70
2019-05-18T16:33:03.678Z,39.70
2019-05-18T16:35:34.201Z,39.40
2019-05-18T16:38:04.679Z,39.00
2019-05-18T16:40:35.296Z,38.30
2019-05-18T16:43:07.272Z,37.80
2019-05-18T16:45:37.785Z,37.50
2019-05-18T16:48:08.250Z,37.20
2019-05-18T16:50:38.905Z,37.10
2019-05-18T16:53:10.289Z,36.80
2019-05-18T16:55:42.955Z,36.30
2019-05-18T16:58:13.477Z,35.80
2019-05-18T17:00:43.979Z,35.40
2019-05-18T17:03:14.499Z,35.00
2019-05-18T17:05:45.111Z,34.80
2019-05-18T17:08:15.900Z,34.80
2019-05-18T17:10:46.632Z,34.60
2019-05-18T17:13:17.180Z,34.60
2019-05-18T17:15:47.886Z,34.40
2019-05-18T17:18:18.395Z,34.20
2019-05-18T17:20:48.930Z,33.80
2019-05-18T17:23:19.411Z,33.40
2019-05-18T17:25:49.900Z,32.90
2019-05-18T17:28:20.363Z,32.40
2019-05-18T17:30:52.145Z,32.00
2019-05-18T17:33:24.073Z,31.50
2019-05-18T17:36:00.348Z,31.00
2019-05-18T17:38:26.930Z,30.50
2019-05-18T17:40:57.947Z,30.00
2019-05-18T17:43:28.846Z,29.50
2019-05-18T17:45:59.498Z,28.90
2019-05-18T17:48:30.630Z,28.30
2019-05-18T17:51:01.325Z,27.80
2019-05-18T17:53:32.030Z,27.30
2019-05-18T17:56:03.910Z,26.90
2019-05-18T17:58:41.496Z,26.40
2019-05-18T18:01:16.471Z,26.00
2019-05-18T18:03:46.969Z,25.60
2019-05-18T18:06:17.473Z,25.20
2019-05-18T18:08:48.638Z,24.80
2019-05-18T18:11:20.941Z,24.40
2019-05-18T18:13:53.215Z,24.00
2019-05-18T18:16:23.949Z,23.60
2019-05-18T18:18:54.482Z,23.30
2019-05-18T18:21:25.814Z,23.00
2019-05-18T18:23:58.617Z,22.60
2019-05-18T18:26:30.157Z,22.30
2019-05-18T18:29:00.705Z,22.00
2019-05-18T18:31:31.510Z,21.80
2019-05-18T18:34:03.507Z,21.50
2019-05-18T18:36:34.086Z,21.20
2019-05-18T18:39:07.297Z,21.00
2019-05-18T18:41:37.909Z,20.70
2019-05-18T18:44:08.501Z,20.50
2019-05-18T18:46:39.428Z,20.30
2019-05-18T18:49:10.398Z,20.00
2019-05-18T18:51:42.812Z,19.80
2019-05-18T18:54:13.559Z,19.50
2019-05-18T18:56:44.251Z,19.30
2019-05-18T18:59:15.213Z,19.00
2019-05-18T19:01:46.866Z,18.80
2019-05-18T19:04:19.249Z,18.60
2019-05-18T19:06:57.517Z,18.40
2019-05-18T19:09:30.704Z,18.20
2019-05-18T19:12:01.048Z,18.00
2019-05-18T19:14:33.364Z,17.80
2019-05-18T19:17:12.736Z,17.60
2019-05-18T19:19:48.895Z,17.40
2019-05-18T19:22:19.565Z,17.20
2019-05-18T19:24:50.581Z,17.00
2019-05-18T19:27:21.485Z,16.80
2019-05-18T19:29:52.635Z,16.70
2019-05-18T19:32:25.895Z,16.60
2019-05-18T19:35:12.418Z,16.40
2019-05-18T19:37:43.146Z,16.30
2019-05-18T19:40:15.319Z,16.10
2019-05-18T19:42:53.640Z,16.00
2019-05-18T19:45:29.309Z,15.90
2019-05-18T19:48:03.249Z,15.70
2019-05-18T19:50:37.296Z,15.60
2019-05-18T19:53:08.247Z,15.50
2019-05-18T19:55:47.789Z,15.40
2019-05-18T19:58:18.589Z,15.30
2019-05-18T20:00:52.839Z,15.20
2019-05-18T20:03:24.035Z,15.00
2019-05-18T20:05:59.057Z,14.90
2019-05-18T20:08:30.180Z,14.80
2019-05-18T20:11:09.324Z,14.70
2019-05-18T20:13:54.947Z,14.50
2019-05-18T20:16:26.547Z,14.40
2019-05-18T20:18:57.272Z,14.30
2019-05-18T20:21:28.899Z,14.20
2019-05-18T20:24:02.592Z,14.10
2019-05-18T20:26:51.018Z,14.00
2019-05-18T20:29:28.068Z,13.90
2019-05-18T20:31:58.956Z,13.90
2019-05-18T20:34:29.670Z,13.80
2019-05-18T20:37:00.316Z,13.70
2019-05-18T20:39:31.196Z,13.60
2019-05-18T20:42:04.182Z,13.50
2019-05-18T20:44:36.017Z,13.50
2019-05-18T20:47:16.574Z,13.50
2019-05-18T20:49:51.821Z,13.40
2019-05-18T20:52:24.005Z,13.30
2019-05-18T20:54:54.764Z,13.20
2019-05-18T20:57:25.766Z,13.20
2019-05-18T20:59:58.326Z,13.10
2019-05-18T21:02:29.126Z,13.00
2019-05-18T21:05:02.853Z,12.90
2019-05-18T21:07:35.620Z,12.80
2019-05-18T21:10:07.146Z,12.80
2019-05-18T21:12:39.693Z,12.70
2019-05-18T21:15:11.282Z,12.60
2019-05-18T21:17:42.283Z,12.60
2019-05-18T21:20:13.252Z,12.50
2019-05-18T21:22:45.251Z,12.40
2019-05-18T21:25:18.172Z,12.40
2019-05-18T21:27:51.510Z,12.30
2019-05-18T21:30:22.209Z,12.20
2019-05-18T21:32:52.824Z,12.20
2019-05-18T21:35:25.166Z,12.10
2019-05-18T21:37:55.740Z,12.00
2019-05-18T21:40:26.867Z,12.00
2019-05-18T21:42:58.503Z,12.00
2019-05-18T21:45:28.998Z,11.90
2019-05-18T21:47:59.629Z,11.80
2019-05-18T21:50:30.162Z,11.80
2019-05-18T21:53:03.746Z,11.70
2019-05-18T21:55:34.252Z,11.70
2019-05-18T21:58:04.753Z,11.60
2019-05-18T22:00:35.375Z,11.50
2019-05-18T22:03:05.897Z,11.40
2019-05-18T22:05:36.520Z,11.30
2019-05-18T22:08:07.009Z,11.30
2019-05-18T22:10:37.507Z,11.20
2019-05-18T22:13:08.005Z,11.10
2019-05-18T22:15:38.514Z,11.00
2019-05-18T22:18:23.283Z,10.90
2019-05-18T22:20:44.342Z,10.90
2019-05-18T22:23:14.965Z,10.80
2019-05-18T22:25:45.497Z,10.70
2019-05-18T22:28:15.951Z,10.60
2019-05-18T22:30:46.477Z,10.60
2019-05-18T22:33:17.009Z,10.50
2019-05-18T22:35:47.550Z,10.50
2019-05-18T22:38:18.032Z,10.40
2019-05-18T22:40:48.535Z,10.40
2019-05-18T22:43:19.023Z,10.30
2019-05-18T22:45:51.613Z,10.30
2019-05-18T22:48:22.076Z,10.20
2019-05-18T22:50:52.603Z,10.20
2019-05-18T22:53:23.082Z,10.10
2019-05-18T22:55:53.889Z,10.10
2019-05-18T22:58:24.437Z,10.00
2019-05-18T23:00:54.909Z,10.00
2019-05-18T23:03:25.496Z,9.90
2019-05-18T23:05:56.017Z,9.80
2019-05-18T23:08:26.648Z,9.80
2019-05-18T23:10:57.117Z,9.70
2019-05-18T23:13:27.599Z,9.70
2019-05-18T23:15:58.056Z,9.70
2019-05-18T23:18:30.803Z,9.60
2019-05-18T23:21:02.995Z,9.60
2019-05-18T23:23:33.519Z,9.50
2019-05-18T23:26:04.084Z,9.50
2019-05-18T23:28:34.520Z,9.50
2019-05-18T23:31:05.109Z,9.50
2019-05-18T23:33:35.598Z,9.50
2019-05-18T23:36:06.082Z,9.50
2019-05-18T23:38:36.349Z,9.50
2019-05-18T23:41:06.939Z,9.40
2019-05-18T23:43:37.396Z,9.40
2019-05-18T23:46:07.903Z,9.40
2019-05-18T23:48:38.352Z,9.30
2019-05-18T23:51:08.863Z,9.30
2019-05-18T23:53:39.342Z,9.30
2019-05-18T23:56:10.948Z,9.20
2019-05-18T23:58:41.717Z,9.20
